sensor_id;sensor_type;location;lat;lon;timestamp;P1;durP1;ratioP1;P2;durP2;ratioP2
15198;SDS011;7700;48.654;9.070;2024-01-30T00:01:11;12.03;;;10.80;;
15198;SDS011;7700;48.654;9.070;2024-01-30T00:03:37;12.27;;;10.23;;
15198;SDS011;7700;48.654;9.070;2024-01-30T00:06:03;11.37;;;10.07;;
15198;SDS011;7700;48.654;9.070;2024-01-30T00:08:28;9.93;;;8.37;;
15198;SDS011;7700;48.654;9.070;2024-01-30T00:10:54;9.27;;;8.37;;
15198;SDS011;7700;48.654;9.070;2024-01-30T00:13:20;10.10;;;8.43;;
15198;SDS011;7700;48.654;9.070;2024-01-30T00:15:45;10.07;;;7.77;;
15198;SDS011;7700;48.654;9.070;2024-01-30T00:18:11;10.30;;;9.00;;
15198;SDS011;7700;48.654;9.070;2024-01-30T00:20:37;13.70;;;10.60;;
15198;SDS011;7700;48.654;9.070;2024-01-30T00:23:03;11.27;;;8.40;;
15198;SDS011;7700;48.654;9.070;2024-01-30T00:25:28;7.80;;;6.77;;
15198;SDS011;7700;48.654;9.070;2024-01-30T00:27:54;8.33;;;7.13;;
15198;SDS011;7700;48.654;9.070;2024-01-30T00:30:20;9.67;;;8.27;;
15198;SDS011;7700;48.654;9.070;2024-01-30T00:32:45;10.70;;;9.10;;
15198;SDS011;7700;48.654;9.070;2024-01-30T00:35:11;9.27;;;8.27;;
15198;SDS011;7700;48.654;9.070;2024-01-30T00:37:36;8.83;;;7.93;;
15198;SDS011;7700;48.654;9.070;2024-01-30T00:40:02;11.87;;;8.93;;
15198;SDS011;7700;48.654;9.070;2024-01-30T00:42:28;10.73;;;8.80;;
15198;SDS011;7700;48.654;9.070;2024-01-30T00:44:54;11.97;;;9.70;;
15198;SDS011;7700;48.654;9.070;2024-01-30T00:47:19;11.70;;;10.30;;
15198;SDS011;7700;48.654;9.070;2024-01-30T00:49:45;12.67;;;10.80;;
15198;SDS011;7700;48.654;9.070;2024-01-30T00:52:11;12.83;;;10.73;;
15198;SDS011;7700;48.654;9.070;2024-01-30T00:54:36;12.73;;;9.70;;
15198;SDS011;7700;48.654;9.070;2024-01-30T00:57:02;14.20;;;11.30;;
15198;SDS011;7700;48.654;9.070;2024-01-30T00:59:28;14.73;;;11.77;;
15198;SDS011;7700;48.654;9.070;2024-01-30T01:01:53;13.33;;;11.70;;
15198;SDS011;7700;48.654;9.070;2024-01-30T01:04:19;13.73;;;10.87;;
15198;SDS011;7700;48.654;9.070;2024-01-30T01:06:46;13.43;;;10.80;;
15198;SDS011;7700;48.654;9.070;2024-01-30T01:09:12;13.03;;;10.70;;
15198;SDS011;7700;48.654;9.070;2024-01-30T01:11:37;11.60;;;9.97;;
15198;SDS011;7700;48.654;9.070;2024-01-30T01:14:03;10.33;;;8.90;;
15198;SDS011;7700;48.654;9.070;2024-01-30T01:16:29;10.47;;;8.97;;
15198;SDS011;7700;48.654;9.070;2024-01-30T01:18:55;11.20;;;8.90;;
15198;SDS011;7700;48.654;9.070;2024-01-30T01:21:20;9.53;;;8.57;;
15198;SDS011;7700;48.654;9.070;2024-01-30T01:23:46;10.73;;;8.83;;
15198;SDS011;7700;48.654;9.070;2024-01-30T01:26:11;10.47;;;8.93;;
15198;SDS011;7700;48.654;9.070;2024-01-30T01:28:39;9.73;;;8.43;;
15198;SDS011;7700;48.654;9.070;2024-01-30T01:31:05;9.83;;;8.27;;
15198;SDS011;7700;48.654;9.070;2024-01-30T01:33:31;9.13;;;8.13;;
15198;SDS011;7700;48.654;9.070;2024-01-30T01:35:58;10.13;;;9.03;;
15198;SDS011;7700;48.654;9.070;2024-01-30T01:38:24;12.70;;;9.63;;
15198;SDS011;7700;48.654;9.070;2024-01-30T01:40:49;11.00;;;8.93;;
15198;SDS011;7700;48.654;9.070;2024-01-30T01:43:16;10.60;;;8.83;;
15198;SDS011;7700;48.654;9.070;2024-01-30T01:45:41;13.33;;;7.77;;
15198;SDS011;7700;48.654;9.070;2024-01-30T01:48:07;9.70;;;8.67;;
15198;SDS011;7700;48.654;9.070;2024-01-30T01:50:34;8.40;;;7.50;;
15198;SDS011;7700;48.654;9.070;2024-01-30T01:53:00;9.03;;;8.10;;
15198;SDS011;7700;48.654;9.070;2024-01-30T01:55:26;7.23;;;6.53;;
15198;SDS011;7700;48.654;9.070;2024-01-30T01:57:55;11.03;;;8.07;;
15198;SDS011;7700;48.654;9.070;2024-01-30T02:00:21;10.67;;;9.10;;
15198;SDS011;7700;48.654;9.070;2024-01-30T02:02:47;10.23;;;8.17;;
15198;SDS011;7700;48.654;9.070;2024-01-30T02:05:13;8.77;;;7.87;;
15198;SDS011;7700;48.654;9.070;2024-01-30T02:07:39;8.73;;;7.60;;
15198;SDS011;7700;48.654;9.070;2024-01-30T02:10:06;10.60;;;9.50;;
15198;SDS011;7700;48.654;9.070;2024-01-30T02:12:34;9.57;;;8.57;;
15198;SDS011;7700;48.654;9.070;2024-01-30T02:14:59;9.00;;;7.83;;
15198;SDS011;7700;48.654;9.070;2024-01-30T02:17:25;10.73;;;9.00;;
15198;SDS011;7700;48.654;9.070;2024-01-30T02:19:51;8.87;;;7.90;;
15198;SDS011;7700;48.654;9.070;2024-01-30T02:22:17;10.93;;;8.47;;
15198;SDS011;7700;48.654;9.070;2024-01-30T02:24:44;10.27;;;8.87;;
15198;SDS011;7700;48.654;9.070;2024-01-30T02:27:09;10.43;;;8.90;;
15198;SDS011;7700;48.654;9.070;2024-01-30T02:29:35;9.17;;;7.97;;
15198;SDS011;7700;48.654;9.070;2024-01-30T02:32:00;8.87;;;7.97;;
15198;SDS011;7700;48.654;9.070;2024-01-30T02:34:26;9.10;;;8.17;;
15198;SDS011;7700;48.654;9.070;2024-01-30T02:36:51;10.40;;;9.10;;
15198;SDS011;7700;48.654;9.070;2024-01-30T02:39:17;11.63;;;8.90;;
15198;SDS011;7700;48.654;9.070;2024-01-30T02:41:42;12.80;;;10.33;;
15198;SDS011;7700;48.654;9.070;2024-01-30T02:44:08;9.57;;;8.40;;
15198;SDS011;7700;48.654;9.070;2024-01-30T02:46:33;11.57;;;10.00;;
15198;SDS011;7700;48.654;9.070;2024-01-30T02:48:59;14.73;;;10.37;;
15198;SDS011;7700;48.654;9.070;2024-01-30T02:51:24;13.60;;;10.23;;
15198;SDS011;7700;48.654;9.070;2024-01-30T02:53:50;11.03;;;9.40;;
15198;SDS011;7700;48.654;9.070;2024-01-30T02:56:16;12.87;;;10.07;;
15198;SDS011;7700;48.654;9.070;2024-01-30T02:58:41;9.60;;;7.90;;
15198;SDS011;7700;48.654;9.070;2024-01-30T03:01:07;9.00;;;7.50;;
15198;SDS011;7700;48.654;9.070;2024-01-30T03:03:32;7.37;;;6.43;;
15198;SDS011;7700;48.654;9.070;2024-01-30T03:06:00;8.37;;;7.63;;
15198;SDS011;7700;48.654;9.070;2024-01-30T03:08:25;8.13;;;7.17;;
15198;SDS011;7700;48.654;9.070;2024-01-30T03:10:51;8.20;;;7.13;;
15198;SDS011;7700;48.654;9.070;2024-01-30T03:13:16;10.23;;;8.33;;
15198;SDS011;7700;48.654;9.070;2024-01-30T03:15:42;8.90;;;7.60;;
15198;SDS011;7700;48.654;9.070;2024-01-30T03:18:07;8.63;;;7.40;;
15198;SDS011;7700;48.654;9.070;2024-01-30T03:20:33;7.87;;;7.03;;
15198;SDS011;7700;48.654;9.070;2024-01-30T03:22:59;9.33;;;8.23;;
15198;SDS011;7700;48.654;9.070;2024-01-30T03:25:25;8.87;;;7.60;;
15198;SDS011;7700;48.654;9.070;2024-01-30T03:27:51;9.53;;;7.57;;
15198;SDS011;7700;48.654;9.070;2024-01-30T03:30:17;7.47;;;6.70;;
15198;SDS011;7700;48.654;9.070;2024-01-30T03:32:43;8.67;;;7.13;;
15198;SDS011;7700;48.654;9.070;2024-01-30T03:35:09;8.93;;;7.90;;
15198;SDS011;7700;48.654;9.070;2024-01-30T03:37:34;10.20;;;8.17;;
15198;SDS011;7700;48.654;9.070;2024-01-30T03:40:00;9.60;;;7.83;;
15198;SDS011;7700;48.654;9.070;2024-01-30T03:42:26;9.53;;;7.50;;
15198;SDS011;7700;48.654;9.070;2024-01-30T03:44:52;8.87;;;7.60;;
15198;SDS011;7700;48.654;9.070;2024-01-30T03:47:18;8.90;;;8.00;;
15198;SDS011;7700;48.654;9.070;2024-01-30T03:49:44;9.43;;;8.53;;
15198;SDS011;7700;48.654;9.070;2024-01-30T03:52:10;8.80;;;7.87;;
15198;SDS011;7700;48.654;9.070;2024-01-30T03:54:35;9.70;;;8.73;;
15198;SDS011;7700;48.654;9.070;2024-01-30T03:57:01;11.63;;;8.07;;
15198;SDS011;7700;48.654;9.070;2024-01-30T03:59:27;8.33;;;7.53;;
15198;SDS011;7700;48.654;9.070;2024-01-30T04:01:52;7.97;;;7.17;;
15198;SDS011;7700;48.654;9.070;2024-01-30T04:04:18;8.23;;;7.43;;
15198;SDS011;7700;48.654;9.070;2024-01-30T04:06:44;9.07;;;8.13;;
15198;SDS011;7700;48.654;9.070;2024-01-30T04:09:10;11.07;;;6.90;;
15198;SDS011;7700;48.654;9.070;2024-01-30T04:11:36;7.13;;;6.37;;
15198;SDS011;7700;48.654;9.070;2024-01-30T04:14:01;6.83;;;6.13;;
15198;SDS011;7700;48.654;9.070;2024-01-30T04:16:27;6.20;;;5.60;;
15198;SDS011;7700;48.654;9.070;2024-01-30T04:18:53;6.63;;;5.60;;
15198;SDS011;7700;48.654;9.070;2024-01-30T04:21:20;5.90;;;5.27;;
15198;SDS011;7700;48.654;9.070;2024-01-30T04:23:46;6.17;;;5.50;;
15198;SDS011;7700;48.654;9.070;2024-01-30T04:26:12;7.10;;;6.40;;
15198;SDS011;7700;48.654;9.070;2024-01-30T04:28:37;7.33;;;6.03;;
15198;SDS011;7700;48.654;9.070;2024-01-30T04:31:03;6.90;;;6.13;;
15198;SDS011;7700;48.654;9.070;2024-01-30T04:33:28;7.73;;;5.90;;
15198;SDS011;7700;48.654;9.070;2024-01-30T04:35:54;6.50;;;5.83;;
15198;SDS011;7700;48.654;9.070;2024-01-30T04:38:19;6.63;;;6.03;;
15198;SDS011;7700;48.654;9.070;2024-01-30T04:40:45;7.27;;;5.97;;
15198;SDS011;7700;48.654;9.070;2024-01-30T04:43:10;7.67;;;5.57;;
15198;SDS011;7700;48.654;9.070;2024-01-30T04:45:36;7.33;;;6.63;;
15198;SDS011;7700;48.654;9.070;2024-01-30T04:48:01;7.63;;;6.90;;
15198;SDS011;7700;48.654;9.070;2024-01-30T04:50:27;11.87;;;9.50;;
15198;SDS011;7700;48.654;9.070;2024-01-30T04:52:53;11.33;;;9.87;;
15198;SDS011;7700;48.654;9.070;2024-01-30T04:55:18;13.87;;;10.20;;
15198;SDS011;7700;48.654;9.070;2024-01-30T04:57:43;10.93;;;9.60;;
15198;SDS011;7700;48.654;9.070;2024-01-30T05:00:09;10.73;;;9.30;;
15198;SDS011;7700;48.654;9.070;2024-01-30T05:02:35;11.90;;;10.17;;
15198;SDS011;7700;48.654;9.070;2024-01-30T05:05:01;15.03;;;10.93;;
15198;SDS011;7700;48.654;9.070;2024-01-30T05:07:26;17.13;;;11.90;;
15198;SDS011;7700;48.654;9.070;2024-01-30T05:09:52;14.73;;;11.40;;
15198;SDS011;7700;48.654;9.070;2024-01-30T05:12:18;12.93;;;11.27;;
15198;SDS011;7700;48.654;9.070;2024-01-30T05:14:44;16.23;;;12.00;;
15198;SDS011;7700;48.654;9.070;2024-01-30T05:17:09;17.37;;;12.07;;
15198;SDS011;7700;48.654;9.070;2024-01-30T05:19:37;15.63;;;11.60;;
15198;SDS011;7700;48.654;9.070;2024-01-30T05:22:03;17.63;;;11.40;;
15198;SDS011;7700;48.654;9.070;2024-01-30T05:24:29;16.27;;;11.30;;
15198;SDS011;7700;48.654;9.070;2024-01-30T05:26:54;14.30;;;10.80;;
15198;SDS011;7700;48.654;9.070;2024-01-30T05:29:20;14.50;;;12.17;;
15198;SDS011;7700;48.654;9.070;2024-01-30T05:31:45;15.17;;;12.60;;
15198;SDS011;7700;48.654;9.070;2024-01-30T05:34:11;16.80;;;14.33;;
15198;SDS011;7700;48.654;9.070;2024-01-30T05:36:36;18.97;;;15.23;;
15198;SDS011;7700;48.654;9.070;2024-01-30T05:39:02;17.70;;;15.67;;
15198;SDS011;7700;48.654;9.070;2024-01-30T05:41:27;18.83;;;16.83;;
15198;SDS011;7700;48.654;9.070;2024-01-30T05:43:53;20.17;;;17.13;;
15198;SDS011;7700;48.654;9.070;2024-01-30T05:46:18;16.43;;;14.83;;
15198;SDS011;7700;48.654;9.070;2024-01-30T05:48:44;15.20;;;12.60;;
15198;SDS011;7700;48.654;9.070;2024-01-30T05:51:09;13.17;;;11.50;;
15198;SDS011;7700;48.654;9.070;2024-01-30T05:53:35;11.97;;;10.47;;
15198;SDS011;7700;48.654;9.070;2024-01-30T05:56:01;11.20;;;10.10;;
15198;SDS011;7700;48.654;9.070;2024-01-30T05:58:27;11.43;;;9.77;;
15198;SDS011;7700;48.654;9.070;2024-01-30T06:00:53;9.63;;;8.73;;
15198;SDS011;7700;48.654;9.070;2024-01-30T06:03:18;11.40;;;8.67;;
15198;SDS011;7700;48.654;9.070;2024-01-30T06:05:44;8.50;;;7.70;;
15198;SDS011;7700;48.654;9.070;2024-01-30T06:08:09;8.00;;;7.20;;
15198;SDS011;7700;48.654;9.070;2024-01-30T06:10:35;7.47;;;6.80;;
15198;SDS011;7700;48.654;9.070;2024-01-30T06:13:00;8.43;;;7.30;;
15198;SDS011;7700;48.654;9.070;2024-01-30T06:15:26;8.40;;;7.20;;
15198;SDS011;7700;48.654;9.070;2024-01-30T06:17:54;8.60;;;7.20;;
15198;SDS011;7700;48.654;9.070;2024-01-30T06:20:20;9.83;;;8.10;;
15198;SDS011;7700;48.654;9.070;2024-01-30T06:22:45;10.03;;;8.77;;
15198;SDS011;7700;48.654;9.070;2024-01-30T06:25:11;10.87;;;9.20;;
15198;SDS011;7700;48.654;9.070;2024-01-30T06:27:37;10.77;;;9.67;;
15198;SDS011;7700;48.654;9.070;2024-01-30T06:30:03;13.63;;;12.20;;
15198;SDS011;7700;48.654;9.070;2024-01-30T06:32:29;15.23;;;13.23;;
15198;SDS011;7700;48.654;9.070;2024-01-30T06:34:59;18.40;;;15.03;;
15198;SDS011;7700;48.654;9.070;2024-01-30T06:37:25;20.97;;;17.10;;
15198;SDS011;7700;48.654;9.070;2024-01-30T06:39:50;20.47;;;18.47;;
15198;SDS011;7700;48.654;9.070;2024-01-30T06:42:17;20.27;;;17.97;;
15198;SDS011;7700;48.654;9.070;2024-01-30T06:44:43;21.50;;;19.10;;
15198;SDS011;7700;48.654;9.070;2024-01-30T06:47:09;22.27;;;19.93;;
15198;SDS011;7700;48.654;9.070;2024-01-30T06:49:34;21.87;;;18.97;;
15198;SDS011;7700;48.654;9.070;2024-01-30T06:52:03;19.30;;;17.30;;
15198;SDS011;7700;48.654;9.070;2024-01-30T06:54:31;19.80;;;17.77;;
15198;SDS011;7700;48.654;9.070;2024-01-30T06:56:57;20.03;;;18.00;;
15198;SDS011;7700;48.654;9.070;2024-01-30T06:59:23;20.53;;;18.43;;
15198;SDS011;7700;48.654;9.070;2024-01-30T07:01:49;19.70;;;17.60;;
15198;SDS011;7700;48.654;9.070;2024-01-30T07:04:15;18.57;;;16.43;;
15198;SDS011;7700;48.654;9.070;2024-01-30T07:06:41;19.63;;;17.13;;
15198;SDS011;7700;48.654;9.070;2024-01-30T07:09:06;19.40;;;17.40;;
15198;SDS011;7700;48.654;9.070;2024-01-30T07:11:33;20.97;;;18.43;;
15198;SDS011;7700;48.654;9.070;2024-01-30T07:13:59;20.57;;;18.30;;
15198;SDS011;7700;48.654;9.070;2024-01-30T07:16:24;20.90;;;17.37;;
15198;SDS011;7700;48.654;9.070;2024-01-30T07:18:50;18.77;;;16.67;;
15198;SDS011;7700;48.654;9.070;2024-01-30T07:21:15;18.63;;;16.17;;
15198;SDS011;7700;48.654;9.070;2024-01-30T07:23:41;18.67;;;16.77;;
15198;SDS011;7700;48.654;9.070;2024-01-30T07:26:08;19.93;;;17.63;;
15198;SDS011;7700;48.654;9.070;2024-01-30T07:28:34;18.10;;;16.17;;
15198;SDS011;7700;48.654;9.070;2024-01-30T07:31:03;18.10;;;16.07;;
15198;SDS011;7700;48.654;9.070;2024-01-30T07:33:28;16.93;;;15.13;;
15198;SDS011;7700;48.654;9.070;2024-01-30T07:35:54;15.93;;;14.23;;
15198;SDS011;7700;48.654;9.070;2024-01-30T07:38:19;14.70;;;13.13;;
15198;SDS011;7700;48.654;9.070;2024-01-30T07:40:45;14.90;;;11.87;;
15198;SDS011;7700;48.654;9.070;2024-01-30T07:43:11;12.97;;;11.67;;
15198;SDS011;7700;48.654;9.070;2024-01-30T07:45:37;11.40;;;10.20;;
15198;SDS011;7700;48.654;9.070;2024-01-30T07:48:03;10.57;;;9.00;;
15198;SDS011;7700;48.654;9.070;2024-01-30T07:50:30;9.60;;;8.27;;
15198;SDS011;7700;48.654;9.070;2024-01-30T07:52:56;8.47;;;7.67;;
15198;SDS011;7700;48.654;9.070;2024-01-30T07:55:21;10.87;;;6.67;;
15198;SDS011;7700;48.654;9.070;2024-01-30T07:57:51;7.07;;;6.37;;
15198;SDS011;7700;48.654;9.070;2024-01-30T08:00:17;6.87;;;6.17;;
15198;SDS011;7700;48.654;9.070;2024-01-30T08:02:45;7.37;;;6.50;;
15198;SDS011;7700;48.654;9.070;2024-01-30T08:05:10;9.80;;;7.80;;
15198;SDS011;7700;48.654;9.070;2024-01-30T08:07:36;8.23;;;7.43;;
15198;SDS011;7700;48.654;9.070;2024-01-30T08:10:02;8.57;;;7.37;;
15198;SDS011;7700;48.654;9.070;2024-01-30T08:12:28;8.20;;;7.10;;
15198;SDS011;7700;48.654;9.070;2024-01-30T08:14:54;7.93;;;6.83;;
15198;SDS011;7700;48.654;9.070;2024-01-30T08:17:19;11.00;;;9.00;;
15198;SDS011;7700;48.654;9.070;2024-01-30T08:19:45;9.43;;;8.47;;
15198;SDS011;7700;48.654;9.070;2024-01-30T08:22:11;8.63;;;7.73;;
15198;SDS011;7700;48.654;9.070;2024-01-30T08:24:37;7.80;;;7.10;;
15198;SDS011;7700;48.654;9.070;2024-01-30T08:27:05;9.00;;;7.83;;
15198;SDS011;7700;48.654;9.070;2024-01-30T08:29:31;8.70;;;7.17;;
15198;SDS011;7700;48.654;9.070;2024-01-30T08:31:57;8.63;;;7.80;;
15198;SDS011;7700;48.654;9.070;2024-01-30T08:34:24;7.77;;;7.07;;
15198;SDS011;7700;48.654;9.070;2024-01-30T08:36:49;8.23;;;7.37;;
15198;SDS011;7700;48.654;9.070;2024-01-30T08:39:15;8.37;;;7.57;;
15198;SDS011;7700;48.654;9.070;2024-01-30T08:41:40;7.60;;;6.90;;
15198;SDS011;7700;48.654;9.070;2024-01-30T08:44:06;8.50;;;7.80;;
15198;SDS011;7700;48.654;9.070;2024-01-30T08:46:32;8.33;;;7.53;;
15198;SDS011;7700;48.654;9.070;2024-01-30T08:48:57;8.73;;;7.87;;
15198;SDS011;7700;48.654;9.070;2024-01-30T08:51:23;8.80;;;7.90;;
15198;SDS011;7700;48.654;9.070;2024-01-30T08:53:48;9.20;;;7.97;;
15198;SDS011;7700;48.654;9.070;2024-01-30T08:56:14;8.33;;;7.63;;
15198;SDS011;7700;48.654;9.070;2024-01-30T08:58:41;8.30;;;7.60;;
15198;SDS011;7700;48.654;9.070;2024-01-30T09:01:06;8.53;;;7.73;;
15198;SDS011;7700;48.654;9.070;2024-01-30T09:03:32;7.90;;;7.20;;
15198;SDS011;7700;48.654;9.070;2024-01-30T09:05:58;8.77;;;7.97;;
15198;SDS011;7700;48.654;9.070;2024-01-30T09:08:24;8.17;;;7.37;;
15198;SDS011;7700;48.654;9.070;2024-01-30T09:10:49;7.23;;;6.53;;
15198;SDS011;7700;48.654;9.070;2024-01-30T09:13:15;9.00;;;7.10;;
15198;SDS011;7700;48.654;9.070;2024-01-30T09:15:41;7.67;;;6.97;;
15198;SDS011;7700;48.654;9.070;2024-01-30T09:18:07;7.00;;;6.40;;
15198;SDS011;7700;48.654;9.070;2024-01-30T09:20:32;7.07;;;6.40;;
15198;SDS011;7700;48.654;9.070;2024-01-30T09:22:58;7.30;;;6.53;;
15198;SDS011;7700;48.654;9.070;2024-01-30T09:25:23;7.30;;;6.40;;
15198;SDS011;7700;48.654;9.070;2024-01-30T09:27:49;7.10;;;6.40;;
15198;SDS011;7700;48.654;9.070;2024-01-30T09:30:15;7.20;;;5.70;;
15198;SDS011;7700;48.654;9.070;2024-01-30T09:32:40;6.47;;;5.87;;
15198;SDS011;7700;48.654;9.070;2024-01-30T09:35:06;6.43;;;5.83;;
15198;SDS011;7700;48.654;9.070;2024-01-30T09:37:32;6.13;;;5.53;;
15198;SDS011;7700;48.654;9.070;2024-01-30T09:39:58;5.90;;;5.40;;
15198;SDS011;7700;48.654;9.070;2024-01-30T09:42:41;6.27;;;5.67;;
15198;SDS011;7700;48.654;9.070;2024-01-30T09:45:10;6.40;;;5.80;;
15198;SDS011;7700;48.654;9.070;2024-01-30T09:47:41;7.67;;;6.00;;
15198;SDS011;7700;48.654;9.070;2024-01-30T09:50:08;8.27;;;6.57;;
15198;SDS011;7700;48.654;9.070;2024-01-30T09:52:35;7.57;;;6.83;;
15198;SDS011;7700;48.654;9.070;2024-01-30T09:55:01;6.83;;;6.17;;
15198;SDS011;7700;48.654;9.070;2024-01-30T09:57:27;7.68;;;6.50;;
15198;SDS011;7700;48.654;9.070;2024-01-30T09:59:53;8.07;;;7.30;;
15198;SDS011;7700;48.654;9.070;2024-01-30T10:03:30;10.25;;;9.15;;
15198;SDS011;7700;48.654;9.070;2024-01-30T10:05:56;10.68;;;9.63;;
15198;SDS011;7700;48.654;9.070;2024-01-30T10:08:22;9.00;;;8.10;;
15198;SDS011;7700;48.654;9.070;2024-01-30T10:10:48;10.00;;;8.20;;
15198;SDS011;7700;48.654;9.070;2024-01-30T10:13:15;10.32;;;9.05;;
15198;SDS011;7700;48.654;9.070;2024-01-30T10:15:41;11.38;;;9.88;;
15198;SDS011;7700;48.654;9.070;2024-01-30T10:18:06;11.85;;;9.75;;
15198;SDS011;7700;48.654;9.070;2024-01-30T10:20:33;12.70;;;9.73;;
15198;SDS011;7700;48.654;9.070;2024-01-30T10:22:59;14.05;;;10.98;;
15198;SDS011;7700;48.654;9.070;2024-01-30T10:25:27;8.98;;;7.10;;
15198;SDS011;7700;48.654;9.070;2024-01-30T10:27:53;7.95;;;7.15;;
15198;SDS011;7700;48.654;9.070;2024-01-30T10:30:20;6.60;;;5.88;;
15198;SDS011;7700;48.654;9.070;2024-01-30T10:32:46;6.63;;;5.88;;
15198;SDS011;7700;48.654;9.070;2024-01-30T10:35:12;6.18;;;5.57;;
15198;SDS011;7700;48.654;9.070;2024-01-30T10:37:37;8.13;;;6.70;;
15198;SDS011;7700;48.654;9.070;2024-01-30T10:40:03;7.85;;;7.05;;
15198;SDS011;7700;48.654;9.070;2024-01-30T10:42:32;8.75;;;6.30;;
15198;SDS011;7700;48.654;9.070;2024-01-30T10:47:34;12.55;;;10.07;;
15198;SDS011;7700;48.654;9.070;2024-01-30T10:50:03;11.25;;;9.07;;
15198;SDS011;7700;48.654;9.070;2024-01-30T10:52:29;6.97;;;6.28;;
15198;SDS011;7700;48.654;9.070;2024-01-30T10:54:56;5.88;;;5.25;;
15198;SDS011;7700;48.654;9.070;2024-01-30T10:57:22;5.97;;;5.30;;
15198;SDS011;7700;48.654;9.070;2024-01-30T10:59:49;6.82;;;6.13;;
15198;SDS011;7700;48.654;9.070;2024-01-30T11:02:18;6.63;;;5.22;;
15198;SDS011;7700;48.654;9.070;2024-01-30T11:04:45;5.40;;;4.68;;
15198;SDS011;7700;48.654;9.070;2024-01-30T11:07:17;5.30;;;3.80;;
15198;SDS011;7700;48.654;9.070;2024-01-30T11:09:53;6.32;;;3.90;;
15198;SDS011;7700;48.654;9.070;2024-01-30T11:12:29;4.20;;;3.20;;
15198;SDS011;7700;48.654;9.070;2024-01-30T11:15:06;3.50;;;3.20;;
15198;SDS011;7700;48.654;9.070;2024-01-30T11:20:19;4.45;;;2.80;;
15198;SDS011;7700;48.654;9.070;2024-01-30T11:22:47;3.38;;;2.95;;
15198;SDS011;7700;48.654;9.070;2024-01-30T11:25:16;3.70;;;2.90;;
15198;SDS011;7700;48.654;9.070;2024-01-30T11:27:42;2.55;;;2.30;;
15198;SDS011;7700;48.654;9.070;2024-01-30T11:30:09;2.85;;;2.30;;
15198;SDS011;7700;48.654;9.070;2024-01-30T11:32:35;3.80;;;3.00;;
15198;SDS011;7700;48.654;9.070;2024-01-30T11:35:05;2.60;;;2.30;;
15198;SDS011;7700;48.654;9.070;2024-01-30T11:37:31;3.00;;;2.45;;
15198;SDS011;7700;48.654;9.070;2024-01-30T11:39:57;2.22;;;2.10;;
15198;SDS011;7700;48.654;9.070;2024-01-30T11:42:23;2.50;;;2.30;;
15198;SDS011;7700;48.654;9.070;2024-01-30T11:44:52;2.97;;;2.30;;
15198;SDS011;7700;48.654;9.070;2024-01-30T11:47:18;4.07;;;2.00;;
15198;SDS011;7700;48.654;9.070;2024-01-30T11:49:43;3.58;;;2.20;;
15198;SDS011;7700;48.654;9.070;2024-01-30T11:52:09;3.70;;;2.25;;
15198;SDS011;7700;48.654;9.070;2024-01-30T11:54:35;5.07;;;3.08;;
15198;SDS011;7700;48.654;9.070;2024-01-30T11:57:01;3.55;;;3.13;;
15198;SDS011;7700;48.654;9.070;2024-01-30T11:59:26;3.30;;;3.00;;
15198;SDS011;7700;48.654;9.070;2024-01-30T12:01:52;5.00;;;3.90;;
15198;SDS011;7700;48.654;9.070;2024-01-30T12:04:17;8.05;;;4.05;;
15198;SDS011;7700;48.654;9.070;2024-01-30T12:06:43;7.03;;;3.90;;
15198;SDS011;7700;48.654;9.070;2024-01-30T12:09:09;3.95;;;3.55;;
15198;SDS011;7700;48.654;9.070;2024-01-30T12:11:46;5.47;;;3.88;;
15198;SDS011;7700;48.654;9.070;2024-01-30T12:14:13;5.57;;;3.50;;
15198;SDS011;7700;48.654;9.070;2024-01-30T12:16:39;5.47;;;3.30;;
15198;SDS011;7700;48.654;9.070;2024-01-30T12:19:04;4.18;;;3.30;;
15198;SDS011;7700;48.654;9.070;2024-01-30T12:21:30;4.13;;;3.00;;
15198;SDS011;7700;48.654;9.070;2024-01-30T12:23:56;3.97;;;3.42;;
15198;SDS011;7700;48.654;9.070;2024-01-30T12:26:23;3.65;;;2.88;;
15198;SDS011;7700;48.654;9.070;2024-01-30T12:28:49;3.10;;;2.63;;
15198;SDS011;7700;48.654;9.070;2024-01-30T12:31:15;4.05;;;2.70;;
15198;SDS011;7700;48.654;9.070;2024-01-30T12:33:41;2.72;;;2.40;;
15198;SDS011;7700;48.654;9.070;2024-01-30T12:36:06;2.28;;;2.05;;
15198;SDS011;7700;48.654;9.070;2024-01-30T12:38:32;5.18;;;2.30;;
15198;SDS011;7700;48.654;9.070;2024-01-30T12:40:58;4.22;;;2.20;;
15198;SDS011;7700;48.654;9.070;2024-01-30T12:43:23;3.92;;;2.03;;
15198;SDS011;7700;48.654;9.070;2024-01-30T12:45:50;4.25;;;2.47;;
15198;SDS011;7700;48.654;9.070;2024-01-30T12:48:17;3.40;;;2.30;;
15198;SDS011;7700;48.654;9.070;2024-01-30T12:50:43;2.65;;;2.17;;
15198;SDS011;7700;48.654;9.070;2024-01-30T12:53:09;2.38;;;2.17;;
15198;SDS011;7700;48.654;9.070;2024-01-30T12:55:34;2.75;;;2.47;;
15198;SDS011;7700;48.654;9.070;2024-01-30T12:58:00;2.83;;;2.58;;
15198;SDS011;7700;48.654;9.070;2024-01-30T13:00:26;2.75;;;2.38;;
15198;SDS011;7700;48.654;9.070;2024-01-30T13:02:51;3.25;;;2.75;;
15198;SDS011;7700;48.654;9.070;2024-01-30T13:05:17;3.53;;;2.63;;
15198;SDS011;7700;48.654;9.070;2024-01-30T13:07:43;2.95;;;2.60;;
15198;SDS011;7700;48.654;9.070;2024-01-30T13:10:08;3.05;;;2.10;;
15198;SDS011;7700;48.654;9.070;2024-01-30T13:12:34;3.10;;;2.63;;
15198;SDS011;7700;48.654;9.070;2024-01-30T13:15:00;2.80;;;2.50;;
15198;SDS011;7700;48.654;9.070;2024-01-30T13:17:26;2.22;;;2.00;;
15198;SDS011;7700;48.654;9.070;2024-01-30T13:19:52;2.30;;;2.10;;
15198;SDS011;7700;48.654;9.070;2024-01-30T13:22:19;2.67;;;2.10;;
15198;SDS011;7700;48.654;9.070;2024-01-30T13:24:46;2.17;;;1.98;;
15198;SDS011;7700;48.654;9.070;2024-01-30T13:27:12;2.72;;;2.22;;
15198;SDS011;7700;48.654;9.070;2024-01-30T13:29:38;2.92;;;2.28;;
15198;SDS011;7700;48.654;9.070;2024-01-30T13:32:03;2.15;;;1.95;;
15198;SDS011;7700;48.654;9.070;2024-01-30T13:34:29;1.98;;;1.88;;
15198;SDS011;7700;48.654;9.070;2024-01-30T13:36:55;2.50;;;2.15;;
15198;SDS011;7700;48.654;9.070;2024-01-30T13:39:20;2.55;;;2.35;;
15198;SDS011;7700;48.654;9.070;2024-01-30T13:41:46;2.30;;;2.05;;
15198;SDS011;7700;48.654;9.070;2024-01-30T13:44:13;2.63;;;2.30;;
15198;SDS011;7700;48.654;9.070;2024-01-30T13:46:39;3.10;;;2.10;;
15198;SDS011;7700;48.654;9.070;2024-01-30T13:49:04;2.78;;;2.28;;
15198;SDS011;7700;48.654;9.070;2024-01-30T13:51:30;2.78;;;2.47;;
15198;SDS011;7700;48.654;9.070;2024-01-30T13:53:55;2.50;;;2.28;;
15198;SDS011;7700;48.654;9.070;2024-01-30T13:56:21;2.97;;;2.17;;
15198;SDS011;7700;48.654;9.070;2024-01-30T13:58:50;2.42;;;2.22;;
15198;SDS011;7700;48.654;9.070;2024-01-30T14:01:15;2.53;;;2.15;;
15198;SDS011;7700;48.654;9.070;2024-01-30T14:03:41;2.45;;;2.22;;
15198;SDS011;7700;48.654;9.070;2024-01-30T14:06:07;2.95;;;2.65;;
15198;SDS011;7700;48.654;9.070;2024-01-30T14:08:32;3.20;;;2.42;;
15198;SDS011;7700;48.654;9.070;2024-01-30T14:10:58;1.98;;;1.88;;
15198;SDS011;7700;48.654;9.070;2024-01-30T14:13:24;3.28;;;2.00;;
15198;SDS011;7700;48.654;9.070;2024-01-30T14:15:50;5.15;;;2.38;;
15198;SDS011;7700;48.654;9.070;2024-01-30T14:18:16;4.10;;;2.42;;
15198;SDS011;7700;48.654;9.070;2024-01-30T14:20:42;2.75;;;2.28;;
15198;SDS011;7700;48.654;9.070;2024-01-30T14:23:07;2.83;;;2.20;;
15198;SDS011;7700;48.654;9.070;2024-01-30T14:25:33;3.30;;;2.22;;
15198;SDS011;7700;48.654;9.070;2024-01-30T14:27:58;3.53;;;2.60;;
15198;SDS011;7700;48.654;9.070;2024-01-30T14:30:24;3.78;;;2.50;;
15198;SDS011;7700;48.654;9.070;2024-01-30T14:32:49;3.65;;;2.45;;
15198;SDS011;7700;48.654;9.070;2024-01-30T14:35:15;2.67;;;2.33;;
15198;SDS011;7700;48.654;9.070;2024-01-30T14:37:41;3.83;;;2.97;;
15198;SDS011;7700;48.654;9.070;2024-01-30T14:40:07;2.40;;;2.15;;
15198;SDS011;7700;48.654;9.070;2024-01-30T14:42:33;3.08;;;2.50;;
15198;SDS011;7700;48.654;9.070;2024-01-30T14:44:59;5.63;;;3.08;;
15198;SDS011;7700;48.654;9.070;2024-01-30T14:47:25;4.28;;;2.75;;
15198;SDS011;7700;48.654;9.070;2024-01-30T14:49:51;3.15;;;2.85;;
15198;SDS011;7700;48.654;9.070;2024-01-30T14:52:17;3.38;;;2.55;;